sensor_id;sensor_type;location;lat;lon;timestamp;pressure;altitude;pressure_sealevel;temperature;humidity
35649;BME280;21768;48.562;13.414;2022-12-18T00:01:25;98604.50;;;-0.25;66.31
35649;BME280;21768;48.562;13.414;2022-12-18T00:03:52;98603.63;;;-0.25;66.28
35649;BME280;21768;48.562;13.414;2022-12-18T00:06:18;98601.84;;;-0.26;66.21
35649;BME280;21768;48.562;13.414;2022-12-18T00:08:44;98609.63;;;-0.23;66.21
35649;BME280;21768;48.562;13.414;2022-12-18T00:11:15;98604.31;;;-0.26;66.17
35649;BME280;21768;48.562;13.414;2022-12-18T00:13:42;98605.38;;;-0.24;66.26
35649;BME280;21768;48.562;13.414;2022-12-18T00:16:13;98605.00;;;-0.27;66.10
35649;BME280;21768;48.562;13.414;2022-12-18T00:18:40;98607.03;;;-0.38;66.31
35649;BME280;21768;48.562;13.414;2022-12-18T00:21:07;98612.28;;;-0.42;66.11
35649;BME280;21768;48.562;13.414;2022-12-18T00:23:34;98620.38;;;-0.50;66.32
35649;BME280;21768;48.562;13.414;2022-12-18T00:26:01;98624.75;;;-0.54;66.50
35649;BME280;21768;48.562;13.414;2022-12-18T00:28:27;98621.97;;;-0.50;66.45
35649;BME280;21768;48.562;13.414;2022-12-18T00:31:06;98627.06;;;-0.49;66.48
35649;BME280;21768;48.562;13.414;2022-12-18T00:33:32;98626.56;;;-0.46;66.07
35649;BME280;21768;48.562;13.414;2022-12-18T00:36:05;98624.16;;;-0.59;66.44
35649;BME280;21768;48.562;13.414;2022-12-18T00:38:31;98629.13;;;-0.59;66.42
35649;BME280;21768;48.562;13.414;2022-12-18T00:40:57;98622.94;;;-0.75;66.17
35649;BME280;21768;48.562;13.414;2022-12-18T00:43:22;98634.81;;;-0.85;66.23
35649;BME280;21768;48.562;13.414;2022-12-18T00:45:48;98633.34;;;-0.90;66.24
35649;BME280;21768;48.562;13.414;2022-12-18T00:48:13;98635.81;;;-0.90;66.42
35649;BME280;21768;48.562;13.414;2022-12-18T00:50:38;98646.03;;;-0.94;66.56
35649;BME280;21768;48.562;13.414;2022-12-18T00:53:04;98649.19;;;-0.95;66.72
35649;BME280;21768;48.562;13.414;2022-12-18T00:55:29;98642.69;;;-1.08;66.59
35649;BME280;21768;48.562;13.414;2022-12-18T00:57:55;98647.13;;;-1.18;66.83
35649;BME280;21768;48.562;13.414;2022-12-18T01:00:20;98643.19;;;-1.10;66.88
35649;BME280;21768;48.562;13.414;2022-12-18T01:02:46;98639.50;;;-1.07;66.95
35649;BME280;21768;48.562;13.414;2022-12-18T01:05:13;98637.72;;;-1.08;66.88
35649;BME280;21768;48.562;13.414;2022-12-18T01:07:38;98633.19;;;-1.05;66.94
35649;BME280;21768;48.562;13.414;2022-12-18T01:10:05;98636.75;;;-1.02;67.18
35649;BME280;21768;48.562;13.414;2022-12-18T01:12:31;98629.72;;;-0.99;67.05
35649;BME280;21768;48.562;13.414;2022-12-18T01:14:56;98636.63;;;-0.97;67.28
35649;BME280;21768;48.562;13.414;2022-12-18T01:17:22;98650.97;;;-0.94;67.21
35649;BME280;21768;48.562;13.414;2022-12-18T01:19:47;98645.03;;;-0.89;67.03
35649;BME280;21768;48.562;13.414;2022-12-18T01:22:13;98647.50;;;-0.89;67.01
35649;BME280;21768;48.562;13.414;2022-12-18T01:24:38;98649.97;;;-0.89;66.82
35649;BME280;21768;48.562;13.414;2022-12-18T01:27:03;98645.53;;;-0.92;67.01
35649;BME280;21768;48.562;13.414;2022-12-18T01:29:29;98646.81;;;-0.88;66.95
35649;BME280;21768;48.562;13.414;2022-12-18T01:31:55;98643.44;;;-0.89;66.91
35649;BME280;21768;48.562;13.414;2022-12-18T01:34:21;98646.41;;;-0.91;66.65
35649;BME280;21768;48.562;13.414;2022-12-18T01:36:47;98655.44;;;-0.92;66.80
35649;BME280;21768;48.562;13.414;2022-12-18T01:39:14;98657.41;;;-0.89;66.80
35649;BME280;21768;48.562;13.414;2022-12-18T01:41:40;98656.72;;;-0.88;66.82
35649;BME280;21768;48.562;13.414;2022-12-18T01:50:14;98664.69;;;-1.04;66.99
35649;BME280;21768;48.562;13.414;2022-12-18T01:52:43;98667.84;;;-1.05;66.80
35649;BME280;21768;48.562;13.414;2022-12-18T01:55:10;98668.81;;;-1.10;66.91
35649;BME280;21768;48.562;13.414;2022-12-18T01:57:37;98666.56;;;-1.08;66.82
35649;BME280;21768;48.562;13.414;2022-12-18T02:00:09;98665.25;;;-1.12;67.00
35649;BME280;21768;48.562;13.414;2022-12-18T02:02:35;98666.34;;;-1.10;66.88
35649;BME280;21768;48.562;13.414;2022-12-18T02:05:02;98666.94;;;-1.05;66.67
35649;BME280;21768;48.562;13.414;2022-12-18T02:08:03;98670.22;;;-1.12;66.88
35649;BME280;21768;48.562;13.414;2022-12-18T02:13:44;98661.78;;;-1.19;66.67
35649;BME280;21768;48.562;13.414;2022-12-18T02:16:25;98667.63;;;-1.19;66.82
35649;BME280;21768;48.562;13.414;2022-12-18T02:18:58;98670.09;;;-1.19;66.86
35649;BME280;21768;48.562;13.414;2022-12-18T02:26:48;98690.31;;;-1.16;66.61
35649;BME280;21768;48.562;13.414;2022-12-18T02:29:18;98685.66;;;-1.20;66.76
35649;BME280;21768;48.562;13.414;2022-12-18T02:31:55;98683.28;;;-1.25;66.91
35649;BME280;21768;48.562;13.414;2022-12-18T02:34:26;98682.59;;;-1.24;66.89
35649;BME280;21768;48.562;13.414;2022-12-18T02:36:54;98682.47;;;-1.19;66.65
35649;BME280;21768;48.562;13.414;2022-12-18T02:39:23;98668.13;;;-1.21;66.48
35649;BME280;21768;48.562;13.414;2022-12-18T02:41:50;98668.66;;;-1.24;66.44
35649;BME280;21768;48.562;13.414;2022-12-18T02:44:16;98669.34;;;-1.25;66.42
35649;BME280;21768;48.562;13.414;2022-12-18T02:46:52;98665.06;;;-1.26;66.71
35649;BME280;21768;48.562;13.414;2022-12-18T02:49:39;98660.13;;;-1.26;66.69
35649;BME280;21768;48.562;13.414;2022-12-18T02:57:40;98676.75;;;-1.25;66.64
35649;BME280;21768;48.562;13.414;2022-12-18T03:00:31;98675.06;;;-1.31;66.57
35649;BME280;21768;48.562;13.414;2022-12-18T03:03:11;98676.16;;;-1.29;66.64
35649;BME280;21768;48.562;13.414;2022-12-18T03:05:45;98674.38;;;-1.30;66.54
35649;BME280;21768;48.562;13.414;2022-12-18T03:08:14;98676.38;;;-1.28;66.59
35649;BME280;21768;48.562;13.414;2022-12-18T03:10:49;98678.44;;;-1.31;66.54
35649;BME280;21768;48.562;13.414;2022-12-18T03:13:23;98686.06;;;-1.29;66.62
35649;BME280;21768;48.562;13.414;2022-12-18T03:15:53;98687.16;;;-1.27;66.49
35649;BME280;21768;48.562;13.414;2022-12-18T03:18:24;98687.66;;;-1.30;66.19
35649;BME280;21768;48.562;13.414;2022-12-18T03:20:51;98691.50;;;-1.32;66.34
35649;BME280;21768;48.562;13.414;2022-12-18T03:23:23;98697.63;;;-1.35;66.33
35649;BME280;21768;48.562;13.414;2022-12-18T03:25:52;98688.22;;;-1.38;66.41
35649;BME280;21768;48.562;13.414;2022-12-18T03:28:22;98684.16;;;-1.38;66.45
35649;BME280;21768;48.562;13.414;2022-12-18T03:30:51;98675.44;;;-1.41;66.40
35649;BME280;21768;48.562;13.414;2022-12-18T03:36:26;98685.63;;;-1.45;66.55
35649;BME280;21768;48.562;13.414;2022-12-18T03:38:52;98692.34;;;-1.44;66.46
35649;BME280;21768;48.562;13.414;2022-12-18T03:49:29;98695.66;;;-1.38;66.28
35649;BME280;21768;48.562;13.414;2022-12-18T03:54:24;98695.53;;;-1.45;66.03
35649;BME280;21768;48.562;13.414;2022-12-18T03:56:58;98699.91;;;-1.50;66.30
35649;BME280;21768;48.562;13.414;2022-12-18T03:59:27;98700.38;;;-1.52;66.42
35649;BME280;21768;48.562;13.414;2022-12-18T04:01:55;98708.50;;;-1.53;66.27
35649;BME280;21768;48.562;13.414;2022-12-18T04:04:23;98714.53;;;-1.51;66.26
35649;BME280;21768;48.562;13.414;2022-12-18T04:06:50;98712.75;;;-1.52;66.13
35649;BME280;21768;48.562;13.414;2022-12-18T04:09:16;98706.09;;;-1.59;66.39
35649;BME280;21768;48.562;13.414;2022-12-18T04:11:41;98715.50;;;-1.56;66.41
35649;BME280;21768;48.562;13.414;2022-12-18T04:14:09;98706.50;;;-1.56;66.21
35649;BME280;21768;48.562;13.414;2022-12-18T04:16:35;98706.44;;;-1.50;66.35
35649;BME280;21768;48.562;13.414;2022-12-18T04:19:01;98718.28;;;-1.48;66.08
35649;BME280;21768;48.562;13.414;2022-12-18T04:21:26;98721.66;;;-1.47;66.10
35649;BME280;21768;48.562;13.414;2022-12-18T04:23:51;98714.44;;;-1.46;66.10
35649;BME280;21768;48.562;13.414;2022-12-18T04:26:17;98713.06;;;-1.44;66.10
35649;BME280;21768;48.562;13.414;2022-12-18T04:28:42;98717.31;;;-1.43;65.70
35649;BME280;21768;48.562;13.414;2022-12-18T04:31:07;98722.25;;;-1.55;65.97
35649;BME280;21768;48.562;13.414;2022-12-18T04:33:33;98708.28;;;-1.55;65.94
35649;BME280;21768;48.562;13.414;2022-12-18T04:35:58;98709.09;;;-1.49;65.81
35649;BME280;21768;48.562;13.414;2022-12-18T04:38:24;98701.56;;;-1.56;65.71
35649;BME280;21768;48.562;13.414;2022-12-18T04:40:49;98697.38;;;-1.62;65.85
35649;BME280;21768;48.562;13.414;2022-12-18T04:43:14;98698.06;;;-1.63;65.82
35649;BME280;21768;48.562;13.414;2022-12-18T04:45:40;98710.53;;;-1.69;65.77
35649;BME280;21768;48.562;13.414;2022-12-18T04:48:05;98710.31;;;-1.71;65.82
35649;BME280;21768;48.562;13.414;2022-12-18T04:50:31;98705.78;;;-1.67;65.81
35649;BME280;21768;48.562;13.414;2022-12-18T04:52:57;98715.88;;;-1.66;65.64
35649;BME280;21768;48.562;13.414;2022-12-18T04:55:23;98722.81;;;-1.63;65.52
35649;BME280;21768;48.562;13.414;2022-12-18T04:57:50;98729.53;;;-1.62;65.62
35649;BME280;21768;48.562;13.414;2022-12-18T05:00:15;98730.91;;;-1.64;65.52
35649;BME280;21768;48.562;13.414;2022-12-18T05:02:41;98725.97;;;-1.64;65.55
35649;BME280;21768;48.562;13.414;2022-12-18T05:05:07;98734.69;;;-1.74;65.73
35649;BME280;21768;48.562;13.414;2022-12-18T05:07:32;98730.22;;;-1.76;65.54
35649;BME280;21768;48.562;13.414;2022-12-18T05:09:58;98732.06;;;-1.81;65.28
35649;BME280;21768;48.562;13.414;2022-12-18T05:12:23;98731.25;;;-1.87;65.64
35649;BME280;21768;48.562;13.414;2022-12-18T05:14:49;98728.56;;;-1.88;65.33
35649;BME280;21768;48.562;13.414;2022-12-18T05:17:14;98737.63;;;-1.94;65.13
35649;BME280;21768;48.562;13.414;2022-12-18T05:19:40;98736.00;;;-2.07;65.60
35649;BME280;21768;48.562;13.414;2022-12-18T05:22:05;98741.56;;;-2.20;65.54
35649;BME280;21768;48.562;13.414;2022-12-18T05:24:30;98749.28;;;-2.24;65.73
35649;BME280;21768;48.562;13.414;2022-12-18T05:26:56;98750.78;;;-2.37;66.00
35649;BME280;21768;48.562;13.414;2022-12-18T05:29:21;98757.91;;;-2.33;65.73
35649;BME280;21768;48.562;13.414;2022-12-18T05:31:47;98753.94;;;-2.38;65.82
35649;BME280;21768;48.562;13.414;2022-12-18T05:34:12;98754.13;;;-2.37;65.88
35649;BME280;21768;48.562;13.414;2022-12-18T05:36:37;98757.22;;;-2.32;66.13
35649;BME280;21768;48.562;13.414;2022-12-18T05:39:03;98751.06;;;-2.23;65.71
35649;BME280;21768;48.562;13.414;2022-12-18T05:41:29;98756.81;;;-2.17;65.95
35649;BME280;21768;48.562;13.414;2022-12-18T05:43:54;98757.91;;;-2.15;66.05
35649;BME280;21768;48.562;13.414;2022-12-18T05:46:20;98767.53;;;-2.11;65.88
35649;BME280;21768;48.562;13.414;2022-12-18T05:48:45;98773.31;;;-2.05;66.01
35649;BME280;21768;48.562;13.414;2022-12-18T05:51:13;98765.69;;;-2.07;65.88
35649;BME280;21768;48.562;13.414;2022-12-18T05:53:39;98773.78;;;-2.08;65.85
35649;BME280;21768;48.562;13.414;2022-12-18T05:56:14;98772.88;;;-2.08;65.71
35649;BME280;21768;48.562;13.414;2022-12-18T05:58:40;98772.19;;;-2.07;65.87
35649;BME280;21768;48.562;13.414;2022-12-18T06:03:38;98775.44;;;-2.14;65.90
35649;BME280;21768;48.562;13.414;2022-12-18T06:06:04;98771.16;;;-2.15;65.83
35649;BME280;21768;48.562;13.414;2022-12-18T06:08:37;98781.53;;;-2.17;66.05
35649;BME280;21768;48.562;13.414;2022-12-18T06:11:02;98787.16;;;-2.18;66.06
35649;BME280;21768;48.562;13.414;2022-12-18T06:13:28;98777.28;;;-2.18;65.94
35649;BME280;21768;48.562;13.414;2022-12-18T06:15:53;98764.78;;;-2.25;66.10
35649;BME280;21768;48.562;13.414;2022-12-18T06:18:18;98772.47;;;-2.29;66.20
35649;BME280;21768;48.562;13.414;2022-12-18T06:20:44;98774.94;;;-2.29;65.94
35649;BME280;21768;48.562;13.414;2022-12-18T06:23:09;98776.84;;;-2.40;65.89
35649;BME280;21768;48.562;13.414;2022-12-18T06:25:38;98780.94;;;-2.46;65.91
35649;BME280;21768;48.562;13.414;2022-12-18T06:28:03;98802.59;;;-2.50;65.99
35649;BME280;21768;48.562;13.414;2022-12-18T06:30:28;98802.91;;;-2.60;65.91
35649;BME280;21768;48.562;13.414;2022-12-18T06:32:54;98803.53;;;-2.79;66.30
35649;BME280;21768;48.562;13.414;2022-12-18T06:35:19;98794.34;;;-2.80;66.62
35649;BME280;21768;48.562;13.414;2022-12-18T06:37:44;98796.13;;;-2.79;66.40
35649;BME280;21768;48.562;13.414;2022-12-18T06:40:10;98789.88;;;-2.83;66.66
35649;BME280;21768;48.562;13.414;2022-12-18T06:42:35;98789.88;;;-2.83;66.48
35649;BME280;21768;48.562;13.414;2022-12-18T06:45:01;98794.78;;;-2.77;66.56
35649;BME280;21768;48.562;13.414;2022-12-18T06:47:26;98790.03;;;-2.76;66.78
35649;BME280;21768;48.562;13.414;2022-12-18T06:49:51;98799.44;;;-2.73;66.58
35649;BME280;21768;48.562;13.414;2022-12-18T06:52:17;98804.47;;;-2.60;66.49
35649;BME280;21768;48.562;13.414;2022-12-18T06:54:42;98814.78;;;-2.57;66.62
35649;BME280;21768;48.562;13.414;2022-12-18T06:57:08;98816.34;;;-2.58;66.30
35649;BME280;21768;48.562;13.414;2022-12-18T06:59:33;98813.03;;;-2.64;66.30
35649;BME280;21768;48.562;13.414;2022-12-18T07:01:58;98802.91;;;-2.60;66.32
35649;BME280;21768;48.562;13.414;2022-12-18T07:04:31;98810.31;;;-2.60;66.53
35649;BME280;21768;48.562;13.414;2022-12-18T07:06:56;98804.41;;;-2.55;66.31
35649;BME280;21768;48.562;13.414;2022-12-18T07:09:23;98801.69;;;-2.51;66.24
35649;BME280;21768;48.562;13.414;2022-12-18T07:11:48;98793.59;;;-2.50;66.13
35649;BME280;21768;48.562;13.414;2022-12-18T07:14:13;98803.47;;;-2.50;66.25
35649;BME280;21768;48.562;13.414;2022-12-18T07:16:39;98803.53;;;-2.55;65.91
35649;BME280;21768;48.562;13.414;2022-12-18T07:19:04;98800.25;;;-2.67;65.79
35649;BME280;21768;48.562;13.414;2022-12-18T07:21:29;98802.63;;;-2.80;66.00
35649;BME280;21768;48.562;13.414;2022-12-18T07:23:55;98806.97;;;-2.90;65.78
35649;BME280;21768;48.562;13.414;2022-12-18T07:26:22;98814.72;;;-2.99;66.01
35649;BME280;21768;48.562;13.414;2022-12-18T07:28:48;98816.56;;;-3.10;66.02
35649;BME280;21768;48.562;13.414;2022-12-18T07:31:16;98827.56;;;-3.08;66.37
35649;BME280;21768;48.562;13.414;2022-12-18T07:33:42;98835.28;;;-2.93;66.30
35649;BME280;21768;48.562;13.414;2022-12-18T07:36:09;98835.47;;;-2.86;66.19
35649;BME280;21768;48.562;13.414;2022-12-18T07:38:35;98834.78;;;-2.85;66.22
35649;BME280;21768;48.562;13.414;2022-12-18T07:41:05;98835.25;;;-2.88;66.44
35649;BME280;21768;48.562;13.414;2022-12-18T07:43:31;98837.03;;;-2.87;66.44
35649;BME280;21768;48.562;13.414;2022-12-18T07:45:56;98842.38;;;-2.78;66.41
35649;BME280;21768;48.562;13.414;2022-12-18T07:48:22;98834.28;;;-2.77;66.53
35649;BME280;21768;48.562;13.414;2022-12-18T07:50:48;98847.25;;;-2.72;66.57
35649;BME280;21768;48.562;13.414;2022-12-18T07:53:13;98842.19;;;-2.61;66.24
35649;BME280;21768;48.562;13.414;2022-12-18T07:55:40;98844.88;;;-2.60;66.08
35649;BME280;21768;48.562;13.414;2022-12-18T07:58:06;98849.72;;;-2.49;66.11
35649;BME280;21768;48.562;13.414;2022-12-18T08:00:32;98847.44;;;-2.47;66.00
35649;BME280;21768;48.562;13.414;2022-12-18T08:02:57;98851.91;;;-2.45;66.16
35649;BME280;21768;48.562;13.414;2022-12-18T08:05:23;98852.53;;;-2.40;65.88
35649;BME280;21768;48.562;13.414;2022-12-18T08:07:49;98862.84;;;-2.37;65.52
35649;BME280;21768;48.562;13.414;2022-12-18T08:10:14;98859.91;;;-2.34;65.41
35649;BME280;21768;48.562;13.414;2022-12-18T08:12:40;98843.72;;;-2.32;65.32
35649;BME280;21768;48.562;13.414;2022-12-18T08:15:06;98853.47;;;-2.21;65.42
35649;BME280;21768;48.562;13.414;2022-12-18T08:17:31;98859.69;;;-2.12;65.14
35649;BME280;21768;48.562;13.414;2022-12-18T08:19:57;98857.00;;;-2.14;65.30
35649;BME280;21768;48.562;13.414;2022-12-18T08:22:22;98858.78;;;-2.13;65.16
35649;BME280;21768;48.562;13.414;2022-12-18T08:24:47;98857.63;;;-2.09;65.30
35649;BME280;21768;48.562;13.414;2022-12-18T08:27:13;98871.34;;;-2.11;64.73
35649;BME280;21768;48.562;13.414;2022-12-18T08:29:38;98867.34;;;-2.16;64.87
35649;BME280;21768;48.562;13.414;2022-12-18T08:32:04;98858.41;;;-2.21;64.61
35649;BME280;21768;48.562;13.414;2022-12-18T08:34:29;98851.63;;;-2.17;64.69
35649;BME280;21768;48.562;13.414;2022-12-18T08:36:54;98848.38;;;-2.04;64.51
35649;BME280;21768;48.562;13.414;2022-12-18T08:39:20;98857.78;;;-2.02;64.38
35649;BME280;21768;48.562;13.414;2022-12-18T08:41:45;98848.69;;;-1.96;64.15
35649;BME280;21768;48.562;13.414;2022-12-18T08:44:30;98835.38;;;-2.09;63.96
35649;BME280;21768;48.562;13.414;2022-12-18T08:47:06;98836.75;;;-2.11;64.08
35649;BME280;21768;48.562;13.414;2022-12-18T08:49:33;98837.09;;;-2.02;63.85
35649;BME280;21768;48.562;13.414;2022-12-18T08:51:58;98841.84;;;-2.04;63.68
35649;BME280;21768;48.562;13.414;2022-12-18T08:54:24;98845.22;;;-2.03;63.94
35649;BME280;21768;48.562;13.414;2022-12-18T08:56:49;98850.06;;;-1.98;63.70
35649;BME280;21768;48.562;13.414;2022-12-18T08:59:16;98859.16;;;-2.04;63.55
35649;BME280;21768;48.562;13.414;2022-12-18T09:01:42;98868.97;;;-1.98;63.65
35649;BME280;21768;48.562;13.414;2022-12-18T09:04:09;98862.84;;;-1.95;63.78
35649;BME280;21768;48.562;13.414;2022-12-18T09:06:34;98863.41;;;-1.85;63.67
35649;BME280;21768;48.562;13.414;2022-12-18T09:09:00;98860.81;;;-1.74;63.72
35649;BME280;21768;48.562;13.414;2022-12-18T09:11:27;98864.09;;;-1.67;63.13
35649;BME280;21768;48.562;13.414;2022-12-18T09:13:54;98865.75;;;-1.55;63.18
35649;BME280;21768;48.562;13.414;2022-12-18T09:16:20;98870.00;;;-1.54;62.94
35649;BME280;21768;48.562;13.414;2022-12-18T09:18:46;98865.59;;;-1.44;63.17
35649;BME280;21768;48.562;13.414;2022-12-18T09:21:14;98874.53;;;-1.39;62.90
35649;BME280;21768;48.562;13.414;2022-12-18T09:23:40;98879.34;;;-1.28;62.86
35649;BME280;21768;48.562;13.414;2022-12-18T09:26:06;98880.19;;;-1.09;62.66
35649;BME280;21768;48.562;13.414;2022-12-18T09:28:32;98889.41;;;-1.08;62.60
35649;BME280;21768;48.562;13.414;2022-12-18T09:30:57;98886.91;;;-1.08;62.32
35649;BME280;21768;48.562;13.414;2022-12-18T09:33:23;98882.19;;;-1.07;62.20
35649;BME280;21768;48.562;13.414;2022-12-18T09:35:49;98886.06;;;-0.96;62.27
35649;BME280;21768;48.562;13.414;2022-12-18T09:38:16;98890.84;;;-0.85;62.14
35649;BME280;21768;48.562;13.414;2022-12-18T09:43:26;98885.53;;;-0.75;61.36
35649;BME280;21768;48.562;13.414;2022-12-18T09:45:58;98889.19;;;-0.66;61.13
35649;BME280;21768;48.562;13.414;2022-12-18T09:48:29;98891.78;;;-0.59;61.10
35649;BME280;21768;48.562;13.414;2022-12-18T09:51:00;98887.22;;;-0.56;61.32
35649;BME280;21768;48.562;13.414;2022-12-18T09:53:30;98889.44;;;-0.52;61.13
35649;BME280;21768;48.562;13.414;2022-12-18T09:55:56;98876.63;;;-0.55;61.13
35649;BME280;21768;48.562;13.414;2022-12-18T09:58:41;98866.81;;;-0.48;60.84
35649;BME280;21768;48.562;13.414;2022-12-18T10:01:12;98869.38;;;-0.41;60.62
35649;BME280;21768;48.562;13.414;2022-12-18T10:03:39;98854.59;;;-0.46;60.68
35649;BME280;21768;48.562;13.414;2022-12-18T10:08:53;98856.31;;;-0.40;60.53
35649;BME280;21768;48.562;13.414;2022-12-18T10:11:32;98841.81;;;-0.37;60.51
35649;BME280;21768;48.562;13.414;2022-12-18T10:14:15;98838.06;;;-0.27;60.26
35649;BME280;21768;48.562;13.414;2022-12-18T10:22:19;98823.09;;;0.11;59.53
35649;BME280;21768;48.562;13.414;2022-12-18T10:24:56;98824.28;;;0.20;59.20
35649;BME280;21768;48.562;13.414;2022-12-18T10:27:26;98815.72;;;0.50;58.77
35649;BME280;21768;48.562;13.414;2022-12-18T10:29:52;98814.34;;;0.72;58.46
35649;BME280;21768;48.562;13.414;2022-12-18T10:32:23;98817.44;;;1.03;57.93
35649;BME280;21768;48.562;13.414;2022-12-18T10:34:51;98821.06;;;1.40;57.45
35649;BME280;21768;48.562;13.414;2022-12-18T10:37:19;98817.09;;;1.61;56.57
35649;BME280;21768;48.562;13.414;2022-12-18T10:39:46;98811.66;;;1.78;56.47
35649;BME280;21768;48.562;13.414;2022-12-18T10:42:19;98815.34;;;3.06;53.88
35649;BME280;21768;48.562;13.414;2022-12-18T10:44:45;98796.81;;;5.04;50.13
35649;BME280;21768;48.562;13.414;2022-12-18T10:47:18;98790.66;;;5.47;48.67
35649;BME280;21768;48.562;13.414;2022-12-18T10:49:50;98796.38;;;5.31;48.49
35649;BME280;21768;48.562;13.414;2022-12-18T10:52:22;98782.84;;;5.60;48.05
35649;BME280;21768;48.562;13.414;2022-12-18T10:54:53;98787.84;;;6.23;47.35
35649;BME280;21768;48.562;13.414;2022-12-18T10:59:56;98789.69;;;7.14;44.72
35649;BME280;21768;48.562;13.414;2022-12-18T11:04:51;98778.78;;;8.33;43.38
35649;BME280;21768;48.562;13.414;2022-12-18T11:07:17;98768.50;;;9.11;41.56
35649;BME280;21768;48.562;13.414;2022-12-18T11:09:42;98758.25;;;10.58;38.87
35649;BME280;21768;48.562;13.414;2022-12-18T11:12:19;98751.53;;;11.77;36.69
35649;BME280;21768;48.562;13.414;2022-12-18T11:14:49;98754.78;;;11.97;34.65
35649;BME280;21768;48.562;13.414;2022-12-18T11:19:57;98744.22;;;10.51;36.90
35649;BME280;21768;48.562;13.414;2022-12-18T11:22:35;98753.34;;;9.19;39.32
35649;BME280;21768;48.562;13.414;2022-12-18T11:27:31;98743.84;;;10.96;36.51
35649;BME280;21768;48.562;13.414;2022-12-18T11:33:11;98722.16;;;12.74;33.06
35649;BME280;21768;48.562;13.414;2022-12-18T11:38:18;98725.84;;;11.93;33.74
35649;BME280;21768;48.562;13.414;2022-12-18T11:40:52;98726.00;;;11.34;33.90
35649;BME280;21768;48.562;13.414;2022-12-18T11:43:26;98719.16;;;11.33;34.12
35649;BME280;21768;48.562;13.414;2022-12-18T11:45:53;98728.88;;;11.48;33.55
35649;BME280;21768;48.562;13.414;2022-12-18T11:48:27;98725.16;;;10.94;34.21
35649;BME280;21768;48.562;13.414;2022-12-18T11:50:57;98722.31;;;10.32;35.13
35649;BME280;21768;48.562;13.414;2022-12-18T11:53:26;98719.16;;;10.73;34.87
35649;BME280;21768;48.562;13.414;2022-12-18T12:01:48;98724.66;;;8.11;38.40
35649;BME280;21768;48.562;13.414;2022-12-18T12:04:38;98734.13;;;8.13;38.76
35649;BME280;21768;48.562;13.414;2022-12-18T12:12:39;98724.53;;;9.07;36.59
35649;BME280;21768;48.562;13.414;2022-12-18T12:20:47;98738.91;;;5.87;41.74
35649;BME280;21768;48.562;13.414;2022-12-18T12:31:32;98745.78;;;4.72;44.13
35649;BME280;21768;48.562;13.414;2022-12-18T12:34:12;98754.19;;;4.50;44.35
35649;BME280;21768;48.562;13.414;2022-12-18T12:39:33;98762.75;;;3.26;46.82
35649;BME280;21768;48.562;13.414;2022-12-18T12:42:02;98772.97;;;2.92;47.51
35649;BME280;21768;48.562;13.414;2022-12-18T12:44:54;98761.94;;;2.69;48.28
35649;BME280;21768;48.562;13.414;2022-12-18T12:47:27;98767.63;;;2.47;48.68
35649;BME280;21768;48.562;13.414;2022-12-18T12:49:55;98767.22;;;2.29;48.68
35649;BME280;21768;48.562;13.414;2022-12-18T12:52:30;98771.81;;;2.12;49.13
35649;BME280;21768;48.562;13.414;2022-12-18T12:54:57;98779.06;;;1.96;49.25
35649;BME280;21768;48.562;13.414;2022-12-18T13:00:15;98775.47;;;1.53;51.04
35649;BME280;21768;48.562;13.414;2022-12-18T13:05:43;98770.91;;;1.29;50.83
35649;BME280;21768;48.562;13.414;2022-12-18T13:08:22;98762.50;;;1.15;51.70
35649;BME280;21768;48.562;13.414;2022-12-18T13:10:47;98757.91;;;0.91;51.88
35649;BME280;21768;48.562;13.414;2022-12-18T13:13:14;98751.22;;;0.77;52.27
35649;BME280;21768;48.562;13.414;2022-12-18T13:16:03;98749.81;;;0.79;52.55
35649;BME280;21768;48.562;13.414;2022-12-18T13:18:30;98750.50;;;0.78;52.42
35649;BME280;21768;48.562;13.414;2022-12-18T13:25:50;98734.88;;;0.72;53.30
35649;BME280;21768;48.562;13.414;2022-12-18T13:28:21;98741.88;;;0.62;53.83
35649;BME280;21768;48.562;13.414;2022-12-18T13:30:52;98752.25;;;0.52;54.16
35649;BME280;21768;48.562;13.414;2022-12-18T13:38:39;98750.94;;;0.42;55.19
35649;BME280;21768;48.562;13.414;2022-12-18T13:46:44;98736.09;;;0.09;55.59
35649;BME280;21768;48.562;13.414;2022-12-18T13:51:48;98736.00;;;0.02;56.35
35649;BME280;21768;48.562;13.414;2022-12-18T13:54:18;98731.94;;;0.03;55.60
35649;BME280;21768;48.562;13.414;2022-12-18T13:56:46;98733.53;;;0.02;55.85
35649;BME280;21768;48.562;13.414;2022-12-18T13:59:26;98739.50;;;-0.03;56.24
35649;BME280;21768;48.562;13.414;2022-12-18T14:01:57;98741.28;;;-0.02;56.08
35649;BME280;21768;48.562;13.414;2022-12-18T14:04:30;98728.13;;;-0.08;56.73
35649;BME280;21768;48.562;13.414;2022-12-18T14:07:26;98730.81;;;-0.19;56.49
35649;BME280;21768;48.562;13.414;2022-12-18T14:09:55;98736.78;;;-0.24;57.10
35649;BME280;21768;48.562;13.414;2022-12-18T14:12:25;98742.47;;;-0.25;56.95
35649;BME280;21768;48.562;13.414;2022-12-18T14:15:35;98726.50;;;-0.27;56.89
35649;BME280;21768;48.562;13.414;2022-12-18T14:20:55;98728.69;;;-0.36;57.15
35649;BME280;21768;48.562;13.414;2022-12-18T14:23:40;98736.91;;;-0.43;57.61
35649;BME280;21768;48.562;13.414;2022-12-18T14:26:26;98741.09;;;-0.49;58.11
35649;BME280;21768;48.562;13.414;2022-12-18T14:28:57;98741.41;;;-0.53;58.27
35649;BME280;21768;48.562;13.414;2022-12-18T14:31:29;98752.81;;;-0.60;58.49
35649;BME280;21768;48.562;13.414;2022-12-18T14:33:55;98758.97;;;-0.64;58.53
35649;BME280;21768;48.562;13.414;2022-12-18T14:36:26;98757.66;;;-0.68;58.75
35649;BME280;21768;48.562;13.414;2022-12-18T14:38:57;98767.66;;;-0.73;59.17
35649;BME280;21768;48.562;13.414;2022-12-18T14:41:24;98761.94;;;-0.79;59.29
35649;BME280;21768;48.562;13.414;2022-12-18T14:43:51;98763.63;;;-0.85;59.34
35649;BME280;21768;48.562;13.414;2022-12-18T14:46:34;98768.47;;;-0.92;59.68
35649;BME280;21768;48.562;13.414;2022-12-18T14:49:02;98775.41;;;-1.02;59.67
35649;BME280;21768;48.562;13.414;2022-12-18T14:51:31;98766.88;;;-1.05;59.66
35649;BME280;21768;48.562;13.414;2022-12-18T14:53:58;98773.22;;;-1.07;59.70
35649;BME280;21768;48.562;13.414;2022-12-18T14:56:31;98775.28;;;-1.10;59.88
35649;BME280;21768;48.562;13.414;2022-12-18T14:59:13;98772.41;;;-1.13;59.72